Time;durP1;ratioP1;P1;durP2;ratioP2;P2;SDS_P1;SDS_P2;PMS_P1;PMS_P2;Temp;Humidity;BMP_temperature;BMP_pressure;BME280_temperature;BME280_humidity;BME280_pressure;Samples;Min_cycle;Max_cycle;Signal;HPM_P1;HPM_P2
2021/04/26 00:00:10;;;;;;;0.60;0.60;;;;;;;6.45;48.37;97116.50;29373;305;63005;-60
2021/04/26 00:00:41;;;;;;;0.60;0.60;;;;;;;6.44;48.02;97109.50;29371;277;64014;-59
2021/04/26 00:01:13;;;;;;;0.60;0.60;;;;;;;6.44;48.38;97117.56;29373;334;63012;-59
2021/04/26 00:01:44;;;;;;;0.60;0.60;;;;;;;6.44;48.03;97117.56;29373;203;63009;-58
2021/04/26 00:02:15;;;;;;;0.60;0.60;;;;;;;6.44;48.20;97109.50;29373;251;63005;-58
2021/04/26 00:02:47;;;;;;;0.50;0.50;;;;;;;6.46;47.86;97114.63;29373;217;63014;-59
2021/04/26 00:03:18;;;;;;;0.60;0.60;;;;;;;6.41;49.12;97109.19;29371;253;64009;-58
2021/04/26 00:03:50;;;;;;;0.60;0.60;;;;;;;6.44;48.33;97114.88;29373;211;63009;-58
2021/04/26 00:04:21;;;;;;;0.60;0.60;;;;;;;6.46;48.28;97112.75;29373;306;63004;-59
2021/04/26 00:04:52;;;;;;;0.60;0.60;;;;;;;6.51;47.63;97104.69;29373;202;63009;-60
2021/04/26 00:05:26;;;;;;;0.60;0.60;;;;;;;6.56;47.31;97110.09;29373;249;63004;-59
2021/04/26 00:05:57;;;;;;;0.60;0.60;;;;;;;6.58;47.63;97109.84;29373;220;63009;-59
2021/04/26 00:06:28;;;;;;;0.60;0.60;;;;;;;6.57;47.58;97108.22;29373;217;63004;-58
2021/04/26 00:06:59;;;;;;;0.60;0.60;;;;;;;6.55;47.90;97111.19;29373;296;63009;-59
2021/04/26 00:07:30;;;;;;;0.60;0.60;;;;;;;6.54;47.55;97104.16;29373;221;63018;-58
2021/04/26 00:08:03;;;;;;;0.60;0.60;;;;;;;6.55;47.14;97111.19;29373;259;63009;-58
2021/04/26 00:08:34;;;;;;;0.60;0.60;;;;;;;6.56;47.23;97112.00;29371;269;64009;-58
2021/04/26 00:09:06;;;;;;;0.60;0.60;;;;;;;6.55;47.04;97105.78;29373;295;63009;-58
2021/04/26 00:09:37;;;;;;;0.50;0.50;;;;;;;6.55;47.12;97105.78;29373;349;63005;-58
2021/04/26 00:10:11;;;;;;;0.60;0.60;;;;;;;6.55;47.22;97103.09;29373;246;63009;-58
2021/04/26 00:10:42;;;;;;;0.60;0.60;;;;;;;6.54;47.05;97103.34;29395;253;63004;-53
2021/04/26 00:11:13;;;;;;;0.50;0.50;;;;;;;6.55;47.21;97105.78;29395;233;63009;-58
2021/04/26 00:11:44;;;;;;;0.50;0.50;;;;;;;6.57;47.70;97103.63;29395;213;63004;-60
2021/04/26 00:12:16;;;;;;;0.60;0.60;;;;;;;6.57;46.96;97098.25;29395;221;63009;-53
2021/04/26 00:12:47;;;;;;;0.60;0.60;;;;;;;6.55;46.85;97103.09;29394;202;64020;-59
2021/04/26 00:13:19;;;;;;;0.60;0.60;;;;;;;6.59;47.44;97101.47;29371;352;64013;-59
2021/04/26 00:13:51;;;;;;;0.60;0.60;;;;;;;6.61;47.15;97093.12;29373;343;63004;-52
2021/04/26 00:14:22;;;;;;;0.60;0.60;;;;;;;6.61;47.06;97088.53;29373;384;63008;-59
2021/04/26 00:14:53;;;;;;;0.60;0.60;;;;;;;6.61;47.17;97093.94;29373;197;63005;-59
2021/04/26 00:15:27;;;;;;;0.60;0.60;;;;;;;6.59;47.44;97096.06;29373;301;63009;-59
2021/04/26 00:16:00;;;;;;;0.60;0.60;;;;;;;6.58;47.40;97083.69;29373;239;63005;-57
2021/04/26 00:16:31;;;;;;;0.60;0.60;;;;;;;6.59;47.49;97090.69;29373;341;63009;-60
2021/04/26 00:17:02;;;;;;;0.60;0.60;;;;;;;6.67;47.10;97089.37;29373;346;63005;-58
2021/04/26 00:17:33;;;;;;;0.60;0.60;;;;;;;6.71;46.72;97091.28;29373;223;63009;-60
2021/04/26 00:18:04;;;;;;;0.60;0.60;;;;;;;6.76;46.77;97084.28;29371;198;64009;-59
2021/04/26 00:18:42;;;;;;;0.60;0.60;;;;;;;6.76;46.92;97084.28;29373;202;63009;-58
2021/04/26 00:19:13;;;;;;;0.60;0.60;;;;;;;6.70;47.05;97081.56;29372;232;63004;-58
2021/04/26 00:19:44;;;;;;;0.60;0.60;;;;;;;6.68;46.91;97089.13;29373;212;63009;-58
2021/04/26 00:20:19;;;;;;;0.60;0.60;;;;;;;6.64;47.23;97082.63;29373;321;63004;-58
2021/04/26 00:20:50;;;;;;;0.50;0.50;;;;;;;6.67;47.16;97087.50;29373;222;63008;-58
2021/04/26 00:21:21;;;;;;;0.60;0.60;;;;;;;6.70;47.70;97084.28;29373;267;63005;-58
2021/04/26 00:21:53;;;;;;;0.57;0.57;;;;;;;6.74;47.14;97081.87;29373;308;63009;-58
2021/04/26 00:22:24;;;;;;;0.60;0.60;;;;;;;6.76;47.05;97082.41;29373;351;63005;-60
2021/04/26 00:22:57;;;;;;;0.60;0.60;;;;;;;6.73;46.83;97086.44;29373;264;63009;-52
2021/04/26 00:23:28;;;;;;;0.60;0.60;;;;;;;6.72;46.76;97076.72;29371;237;64009;-58
2021/04/26 00:24:00;;;;;;;0.60;0.60;;;;;;;6.72;46.69;97078.62;29373;199;63009;-59
2021/04/26 00:24:31;;;;;;;0.60;0.60;;;;;;;6.69;47.22;97074.56;29373;312;63005;-53
2021/04/26 00:25:06;;;;;;;0.60;0.60;;;;;;;6.69;47.15;97077.25;29373;197;63009;-58
2021/04/26 00:25:37;;;;;;;0.60;0.60;;;;;;;6.68;47.18;97072.94;29373;332;63004;-60
2021/04/26 00:26:10;;;;;;;0.60;0.60;;;;;;;6.69;47.24;97071.88;29373;298;63009;-59
2021/04/26 00:26:42;;;;;;;0.60;0.60;;;;;;;6.69;47.22;97068.34;29373;197;63004;-58
2021/04/26 00:27:13;;;;;;;0.60;0.60;;;;;;;6.68;47.51;97078.31;29371;283;64013;-59
2021/04/26 00:27:44;;;;;;;0.60;0.60;;;;;;;6.66;47.16;97077.78;29373;198;63004;-58
2021/04/26 00:28:15;;;;;;;0.60;0.60;;;;;;;6.64;47.36;97082.63;29373;218;63008;-60
2021/04/26 00:28:47;;;;;;;0.60;0.60;;;;;;;6.64;47.66;97077.22;29373;283;63004;-58
2021/04/26 00:29:18;;;;;;;0.60;0.60;;;;;;;6.63;47.14;97070.22;29373;210;63009;-58
2021/04/26 00:29:49;;;;;;;0.60;0.60;;;;;;;6.62;47.29;97073.97;29373;325;63005;-58
2021/04/26 00:30:23;;;;;;;0.60;0.60;;;;;;;6.62;47.43;97078.56;29371;218;64014;-54
2021/04/26 00:30:54;;;;;;;0.60;0.60;;;;;;;6.59;47.64;97071.81;29373;337;63005;-60
2021/04/26 00:31:25;;;;;;;0.60;0.60;;;;;;;6.59;47.46;97071.81;29373;334;63017;-58
2021/04/26 00:31:56;;;;;;;0.60;0.60;;;;;;;6.59;47.53;97068.31;29373;224;63005;-54
2021/04/26 00:32:28;;;;;;;0.60;0.60;;;;;;;6.56;47.46;97069.66;29373;361;63009;-58
2021/04/26 00:33:00;;;;;;;0.60;0.60;;;;;;;6.56;47.78;97075.06;29373;288;63009;-58
2021/04/26 00:33:31;;;;;;;0.60;0.60;;;;;;;6.55;47.92;97073.44;29373;362;63009;-58
2021/04/26 00:34:03;;;;;;;0.60;0.60;;;;;;;6.54;48.84;97071.81;29373;202;63004;-59
2021/04/26 00:34:34;;;;;;;0.60;0.60;;;;;;;6.50;48.04;97076.09;29373;371;63009;-59
2021/04/26 00:35:08;;;;;;;0.60;0.60;;;;;;;6.48;48.47;97067.47;29371;212;64009;-52
2021/04/26 00:35:39;;;;;;;0.50;0.50;;;;;;;6.49;48.21;97074.47;29373;211;63008;-58
2021/04/26 00:36:11;;;;;;;0.60;0.60;;;;;;;6.48;47.96;97072.84;29373;197;63000;-60
2021/04/26 00:36:42;;;;;;;0.60;0.60;;;;;;;6.48;47.96;97072.84;29371;333;64014;-59
2021/04/26 00:37:13;;;;;;;0.60;0.60;;;;;;;6.47;48.24;97073.94;29373;278;63005;-59
2021/04/26 00:37:46;;;;;;;0.50;0.50;;;;;;;6.45;47.69;97073.38;29373;229;63009;-60
2021/04/26 00:38:17;;;;;;;0.50;0.50;;;;;;;6.45;48.18;97070.69;29371;286;64009;-58
2021/04/26 00:38:48;;;;;;;0.60;0.60;;;;;;;6.45;47.93;97067.19;29373;228;63009;-58
2021/04/26 00:39:20;;;;;;;0.60;0.60;;;;;;;6.45;48.13;97069.88;29373;317;63005;-58
2021/04/26 00:39:54;;;;;;;0.60;0.60;;;;;;;6.46;48.04;97074.19;29373;239;63015;-59
2021/04/26 00:40:26;;;;;;;0.50;0.50;;;;;;;6.45;48.34;97067.97;29373;290;63005;-58
2021/04/26 00:40:57;;;;;;;0.60;0.60;;;;;;;6.40;48.14;97073.34;29371;253;64013;-59
2021/04/26 00:41:28;;;;;;;0.60;0.60;;;;;;;6.35;48.25;97067.94;29373;346;63004;-58
2021/04/26 00:41:59;;;;;;;0.60;0.60;;;;;;;6.33;48.52;97070.06;29395;318;63009;-53
2021/04/26 00:42:34;;;;;;;0.60;0.60;;;;;;;6.27;48.87;97071.09;29371;350;64009;-59
2021/04/26 00:43:05;;;;;;;0.60;0.60;;;;;;;6.25;48.27;97071.38;29373;202;63008;-58
2021/04/26 00:43:36;;;;;;;0.60;0.60;;;;;;;6.25;50.14;97076.75;29373;335;63004;-58
2021/04/26 00:44:08;;;;;;;0.60;0.60;;;;;;;6.24;49.14;97071.63;29373;331;63009;-58
2021/04/26 00:44:39;;;;;;;0.60;0.60;;;;;;;6.23;49.30;97064.66;29373;200;63005;-58
2021/04/26 00:45:14;;;;;;;0.60;0.60;;;;;;;6.23;49.42;97072.72;29373;219;63013;-58
2021/04/26 00:45:45;;;;;;;0.60;0.60;;;;;;;6.23;49.56;97064.66;29373;271;63005;-61
2021/04/26 00:46:17;;;;;;;0.60;0.60;;;;;;;6.25;49.09;97065.16;29373;206;63009;-59
2021/04/26 00:46:48;;;;;;;0.60;0.60;;;;;;;6.24;49.77;97067.03;29371;261;64009;-59
2021/04/26 00:47:19;;;;;;;0.60;0.60;;;;;;;6.23;49.14;97061.94;29373;196;63009;-58
2021/04/26 00:47:51;;;;;;;0.52;0.52;;;;;;;6.19;49.54;97055.47;29371;327;64009;-58
2021/04/26 00:48:23;;;;;;;0.60;0.60;;;;;;;6.16;49.04;97048.69;29373;265;63009;-59
2021/04/26 00:48:54;;;;;;;0.50;0.50;;;;;;;6.17;49.07;97054.91;29373;196;63004;-59
2021/04/26 00:49:28;;;;;;;0.60;0.60;;;;;;;6.15;50.14;97051.66;29373;332;63009;-58
2021/04/26 00:49:59;;;;;;;0.60;0.60;;;;;;;6.14;49.57;97052.72;29371;253;64000;-58
2021/04/26 00:50:32;;;;;;;0.60;0.60;;;;;;;6.12;49.63;97049.47;29373;344;63009;-58
2021/04/26 00:51:04;;;;;;;0.60;0.60;;;;;;;6.13;49.88;97049.22;29373;206;63004;-53
2021/04/26 00:51:35;;;;;;;0.60;0.60;;;;;;;6.13;50.17;97043.03;29373;296;63009;-59
2021/04/26 00:52:07;;;;;;;0.60;0.60;;;;;;;6.14;50.02;97052.72;29373;344;63005;-53
2021/04/26 00:52:38;;;;;;;0.60;0.60;;;;;;;6.12;49.87;97044.09;29372;207;63009;-59
2021/04/26 00:53:11;;;;;;;0.60;0.60;;;;;;;6.11;49.79;97045.16;29373;282;63005;-58
2021/04/26 00:53:42;;;;;;;0.60;0.60;;;;;;;6.09;49.82;97041.91;29373;311;63009;-59
2021/04/26 00:54:15;;;;;;;0.60;0.60;;;;;;;6.05;49.84;97036.22;29373;337;63005;-59
2021/04/26 00:54:47;;;;;;;0.60;0.60;;;;;;;6.03;49.38;97043.75;29371;303;64013;-59
2021/04/26 00:55:20;;;;;;;0.60;0.60;;;;;;;6.02;49.61;97034.06;29373;308;63005;-59
2021/04/26 00:55:52;;;;;;;0.60;0.60;;;;;;;6.00;49.44;97034.31;29373;284;63009;-59
2021/04/26 00:56:23;;;;;;;0.60;0.60;;;;;;;5.99;50.11;97032.69;29373;240;63004;-59
2021/04/26 00:56:54;;;;;;;0.60;0.60;;;;;;;5.98;49.90;97036.44;29373;251;63009;-61
2021/04/26 00:57:26;;;;;;;0.60;0.60;;;;;;;5.97;51.36;97040.22;29373;301;63004;-54
2021/04/26 00:57:57;;;;;;;0.60;0.60;;;;;;;5.98;50.57;97030.25;29373;209;63009;-61
2021/04/26 00:58:29;;;;;;;0.60;0.60;;;;;;;5.99;50.43;97037.28;29373;239;63004;-59
2021/04/26 00:59:00;;;;;;;0.60;0.60;;;;;;;5.96;50.79;97035.91;29371;227;64014;-61
2021/04/26 00:59:34;;;;;;;0.60;0.60;;;;;;;5.94;50.58;97029.97;29373;355;63005;-59
2021/04/26 01:00:07;;;;;;;0.60;0.60;;;;;;;5.93;51.14;97033.72;29373;329;63009;-58
2021/04/26 01:00:39;;;;;;;0.60;0.60;;;;;;;5.91;50.58;97033.16;29373;275;63005;-59
2021/04/26 01:01:10;;;;;;;0.60;0.60;;;;;;;5.91;50.57;97022.41;29373;202;63009;-59
2021/04/26 01:01:45;;;;;;;0.60;0.60;;;;;;;5.92;50.95;97031.28;29371;265;64009;-58
2021/04/26 01:02:16;;;;;;;0.60;0.60;;;;;;;5.93;50.78;97027.53;29373;350;63009;-59
2021/04/26 01:02:49;;;;;;;0.60;0.60;;;;;;;5.92;51.04;97026.72;29373;204;63000;-58
2021/04/26 01:03:21;;;;;;;0.60;0.60;;;;;;;5.90;51.08;97022.66;29373;273;63009;-58
2021/04/26 01:03:53;;;;;;;0.60;0.60;;;;;;;5.88;50.84;97011.34;29373;202;63004;-59
2021/04/26 01:04:24;;;;;;;0.60;0.60;;;;;;;5.87;51.37;97025.88;29373;290;63009;-53
2021/04/26 01:04:56;;;;;;;0.60;0.60;;;;;;;5.84;51.52;97016.41;29373;197;63004;-58
2021/04/26 01:05:30;;;;;;;0.60;0.60;;;;;;;5.82;51.46;97015.88;29373;260;63009;-59
2021/04/26 01:06:01;;;;;;;0.60;0.60;;;;;;;5.79;51.34;97021.78;29371;215;64008;-58
2021/04/26 01:06:32;;;;;;;0.60;0.60;;;;;;;5.76;51.21;97022.28;29373;198;63008;-58
2021/04/26 01:07:03;;;;;;;0.60;0.60;;;;;;;5.76;51.46;97022.28;29373;326;63009;-58
2021/04/26 01:07:37;;;;;;;0.60;0.60;;;;;;;5.74;51.71;97021.72;29373;255;63009;-58
2021/04/26 01:08:08;;;;;;;0.60;0.60;;;;;;;5.75;52.05;97028.75;29373;197;63005;-60
2021/04/26 01:08:39;;;;;;;0.60;0.60;;;;;;;5.76;52.03;97026.84;29373;197;63009;-60
2021/04/26 01:09:11;;;;;;;0.60;0.60;;;;;;;5.74;51.63;97021.72;29373;260;63005;-58
2021/04/26 01:09:42;;;;;;;0.60;0.60;;;;;;;5.71;52.01;97025.75;29371;224;64013;-59
2021/04/26 01:10:18;;;;;;;0.60;0.60;;;;;;;5.71;51.63;97022.25;29373;210;63004;-58
2021/04/26 01:10:50;;;;;;;0.60;0.60;;;;;;;5.77;51.78;97018.53;29373;295;63009;-60
2021/04/26 01:11:25;;;;;;;0.60;0.60;;;;;;;5.79;51.49;97015.56;29373;199;63004;-59
2021/04/26 01:12:32;;;;;;;0.60;0.60;;;;;;;5.78;51.37;97019.34;29373;292;63009;-58
2021/04/26 01:13:31;;;;;;;0.60;0.60;;;;;;;5.73;51.76;97015.53;29371;322;64008;-59
2021/04/26 01:14:19;;;;;;;0.60;0.60;;;;;;;5.70;52.20;97015.22;29373;197;63008;-58
2021/04/26 01:15:10;;;;;;;0.60;0.60;;;;;;;5.69;52.14;97016.31;29373;254;63005;-53
2021/04/26 01:15:55;;;;;;;0.60;0.60;;;;;;;5.65;52.29;97015.19;29373;320;63009;-58
2021/04/26 01:16:53;;;;;;;0.60;0.60;;;;;;;5.66;52.34;97017.62;29373;255;63005;-59
2021/04/26 01:17:31;;;;;;;0.60;0.60;;;;;;;5.64;52.63;97014.38;29371;212;64013;-59
2021/04/26 01:18:11;;;;;;;0.60;0.60;;;;;;;5.60;52.61;97013.28;29373;233;63004;-58
2021/04/26 01:19:19;;;;;;;0.60;0.60;;;;;;;5.60;52.14;97012.47;29394;258;63009;-58
2021/04/26 01:19:57;;;;;;;0.60;0.60;;;;;;;5.56;52.30;97006.78;29395;209;63009;-59
2021/04/26 01:21:05;;;;;;;0.60;0.60;;;;;;;5.54;52.60;97008.13;29373;214;63004;-59
2021/04/26 01:22:27;;;;;;;0.60;0.60;;;;;;;5.54;53.49;97002.75;29371;224;64009;-58
2021/04/26 01:23:41;;;;;;;0.60;0.60;;;;;;;5.51;53.07;97003.25;29395;244;63013;-58
2021/04/26 01:24:51;;;;;;;0.60;0.60;;;;;;;5.47;52.79;97007.53;29395;239;63005;-53
2021/04/26 01:25:26;;;;;;;0.60;0.60;;;;;;;5.48;52.80;97004.59;29373;231;63009;-58
2021/04/26 01:26:01;;;;;;;0.60;0.60;;;;;;;5.47;53.73;97010.22;29373;226;63004;-59
2021/04/26 01:27:17;;;;;;;0.62;0.62;;;;;;;5.45;52.82;97006.97;29371;223;64013;-58
2021/04/26 01:28:30;;;;;;;0.60;0.60;;;;;;;5.46;53.26;97000.53;29373;211;63004;-59
2021/04/26 01:29:13;;;;;;;0.60;0.60;;;;;;;5.45;53.32;97004.28;29395;215;63009;-59
2021/04/26 01:30:14;;;;;;;0.60;0.60;;;;;;;5.44;53.09;96997.28;29394;233;64009;-59
2021/04/26 01:30:58;;;;;;;0.60;0.60;;;;;;;5.44;53.25;96994.59;29373;225;63005;-58
2021/04/26 01:32:14;;;;;;;0.60;0.60;;;;;;;5.45;53.19;96993.53;29373;212;63009;-58
2021/04/26 01:33:11;;;;;;;0.60;0.60;;;;;;;5.45;53.05;96996.22;29371;230;64009;-59
2021/04/26 01:33:55;;;;;;;0.60;0.60;;;;;;;5.44;53.44;96997.28;29373;252;63009;-59
2021/04/26 01:34:29;;;;;;;0.60;0.60;;;;;;;5.44;53.25;96999.97;29373;259;63004;-58
2021/04/26 01:35:04;;;;;;;0.60;0.60;;;;;;;5.45;53.63;96998.91;29373;254;63009;-58
2021/04/26 01:35:37;;;;;;;0.60;0.60;;;;;;;5.47;52.96;96999.47;29373;226;63004;-59
2021/04/26 01:36:25;;;;;;;0.60;0.60;;;;;;;5.50;53.83;96990.87;29371;212;64014;-59
2021/04/26 01:36:57;;;;;;;0.60;0.60;;;;;;;5.49;53.46;97000.00;29373;213;63005;-58
2021/04/26 01:37:32;;;;;;;0.60;0.60;;;;;;;5.48;53.79;96995.69;29373;198;63009;-59
2021/04/26 01:38:17;;;;;;;0.60;0.60;;;;;;;5.48;53.77;97001.91;29371;231;64009;-58
2021/04/26 01:38:50;;;;;;;0.60;0.60;;;;;;;5.48;53.61;96993.00;29373;224;63009;-59
2021/04/26 01:39:22;;;;;;;0.60;0.60;;;;;;;5.47;53.57;96994.88;29373;233;63005;-59
2021/04/26 01:39:54;;;;;;;0.60;0.60;;;;;;;5.47;53.85;96999.47;29373;259;63009;-59
2021/04/26 01:40:26;;;;;;;0.60;0.60;;;;;;;5.45;54.36;97001.59;29373;218;63004;-59
2021/04/26 01:40:59;;;;;;;0.60;0.60;;;;;;;5.44;53.68;96999.97;29373;219;63009;-58
2021/04/26 01:41:34;;;;;;;0.60;0.60;;;;;;;5.45;53.57;97001.59;29373;221;63004;-59
2021/04/26 01:42:06;;;;;;;0.60;0.60;;;;;;;5.42;54.10;96999.41;29373;198;63009;-59
2021/04/26 01:42:40;;;;;;;0.60;0.60;;;;;;;5.44;53.76;97006.16;29371;262;64008;-59
2021/04/26 01:43:16;;;;;;;0.60;0.60;;;;;;;5.44;53.90;97008.03;29373;231;63008;-59
2021/04/26 01:43:50;;;;;;;0.60;0.60;;;;;;;5.44;53.88;97008.03;29372;238;63005;-60
2021/04/26 01:44:22;;;;;;;0.60;0.60;;;;;;;5.44;53.98;97008.03;29373;234;63009;-59
2021/04/26 01:44:56;;;;;;;0.60;0.60;;;;;;;5.45;53.81;97010.47;29371;205;64009;-59
2021/04/26 01:45:27;;;;;;;0.60;0.60;;;;;;;5.44;54.58;97014.25;29373;204;63009;-59
2021/04/26 01:46:02;;;;;;;0.60;0.60;;;;;;;5.40;55.13;97007.75;29373;223;63005;-60
2021/04/26 01:46:34;;;;;;;0.60;0.60;;;;;;;5.35;54.88;97011.19;29373;263;63009;-59
2021/04/26 01:47:10;;;;;;;0.60;0.60;;;;;;;5.33;54.32;97010.66;29373;198;63005;-60
2021/04/26 01:47:47;;;;;;;0.60;0.60;;;;;;;5.32;54.70;97006.34;29373;206;63009;-59
2021/04/26 01:48:22;;;;;;;0.60;0.60;;;;;;;5.30;54.67;97013.84;29373;203;63004;-59
2021/04/26 01:48:56;;;;;;;0.60;0.60;;;;;;;5.30;54.53;97008.47;29373;227;63009;-58
2021/04/26 01:49:29;;;;;;;0.60;0.60;;;;;;;5.27;55.65;97008.16;29373;252;63004;-58
2021/04/26 01:50:02;;;;;;;0.60;0.60;;;;;;;5.22;54.92;97000.84;29371;285;64013;-58
2021/04/26 01:50:34;;;;;;;0.60;0.60;;;;;;;5.22;54.67;97000.84;29371;223;64008;-59
2021/04/26 01:51:06;;;;;;;0.60;0.60;;;;;;;5.20;55.04;97003.00;29373;229;63009;-59
2021/04/26 01:51:40;;;;;;;0.60;0.60;;;;;;;5.18;54.82;96997.09;29373;215;63005;-59
2021/04/26 01:52:13;;;;;;;0.60;0.60;;;;;;;5.17;54.76;96998.16;29373;213;63009;-60
2021/04/26 01:52:45;;;;;;;0.60;0.60;;;;;;;5.17;56.19;97003.53;29373;226;63005;-59
2021/04/26 01:53:19;;;;;;;0.60;0.60;;;;;;;5.15;55.25;96994.91;29371;236;64013;-59
2021/04/26 01:53:51;;;;;;;0.60;0.60;;;;;;;5.17;55.08;97000.84;29373;226;63005;-59
2021/04/26 01:54:23;;;;;;;0.60;0.60;;;;;;;5.17;55.11;96995.47;29371;251;64013;-52
2021/04/26 01:54:58;;;;;;;0.60;0.60;;;;;;;5.16;54.95;96995.72;29373;202;63005;-59
2021/04/26 01:55:30;;;;;;;0.60;0.60;;;;;;;5.16;54.90;96999.22;29373;297;63009;-58
2021/04/26 01:56:06;;;;;;;0.60;0.60;;;;;;;5.16;55.43;97003.78;29373;258;63004;-53
2021/04/26 01:56:39;;;;;;;0.60;0.60;;;;;;;5.12;55.77;96998.09;29371;197;64013;-53
2021/04/26 01:57:10;;;;;;;0.50;0.50;;;;;;;5.07;55.68;97000.72;29373;236;63004;-59
2021/04/26 01:57:42;;;;;;;0.60;0.60;;;;;;;5.05;55.40;97000.19;29373;212;63009;-58
2021/04/26 01:58:15;;;;;;;0.60;0.60;;;;;;;5.07;55.29;96998.03;29372;241;63004;-59
2021/04/26 01:58:51;;;;;;;0.70;0.70;;;;;;;5.07;55.06;96995.34;29373;197;63009;-59
2021/04/26 01:59:24;;;;;;;0.60;0.60;;;;;;;5.09;54.78;96995.91;29371;207;64009;-59
2021/04/26 02:00:00;;;;;;;0.60;0.60;;;;;;;5.09;54.71;96993.22;29373;248;63009;-58
2021/04/26 02:00:33;;;;;;;0.60;0.60;;;;;;;5.08;54.92;96985.41;29372;239;63005;-58
2021/04/26 02:01:06;;;;;;;0.60;0.60;;;;;;;5.11;55.65;96992.97;29373;208;63008;-59
2021/04/26 02:01:38;;;;;;;0.60;0.60;;;;;;;5.12;55.28;96990.03;29373;197;63005;-59
2021/04/26 02:02:09;;;;;;;0.60;0.60;;;;;;;5.13;55.36;96988.97;29373;233;63005;-58
2021/04/26 02:02:43;;;;;;;0.60;0.60;;;;;;;5.14;55.46;96993.28;29373;250;63005;-59
2021/04/26 02:03:19;;;;;;;0.60;0.60;;;;;;;5.14;55.31;96987.91;29373;197;63009;-58
2021/04/26 02:03:53;;;;;;;0.60;0.60;;;;;;;5.14;55.28;96990.59;29371;265;64009;-59
2021/04/26 02:04:32;;;;;;;0.60;0.60;;;;;;;5.15;55.31;96981.44;29373;245;63009;-59
2021/04/26 02:05:07;;;;;;;0.60;0.60;;;;;;;5.16;55.11;96988.44;29372;204;63004;-59
2021/04/26 02:05:40;;;;;;;0.60;0.60;;;;;;;5.18;55.58;96988.19;29371;239;64013;-59
2021/04/26 02:06:11;;;;;;;0.60;0.60;;;;;;;5.17;55.25;96987.38;29371;219;64009;-59
2021/04/26 02:06:45;;;;;;;0.60;0.60;;;;;;;5.15;56.57;96992.22;29373;238;63009;-59
2021/04/26 02:07:16;;;;;;;0.60;0.60;;;;;;;5.10;56.08;96992.16;29372;223;63005;-59
2021/04/26 02:07:50;;;;;;;0.60;0.60;;;;;;;5.08;56.72;96994.28;29373;202;63009;-58
2021/04/26 02:08:23;;;;;;;0.60;0.60;;;;;;;5.06;56.53;96991.03;29373;203;63005;-59
2021/04/26 02:08:56;;;;;;;0.60;0.60;;;;;;;5.03;56.68;96988.84;29371;223;64013;-53
2021/04/26 02:09:29;;;;;;;0.60;0.60;;;;;;;5.02;56.12;96989.94;29373;220;63005;-59
2021/04/26 02:10:01;;;;;;;0.60;0.60;;;;;;;5.01;56.07;96989.13;29371;196;64013;-52
2021/04/26 02:10:32;;;;;;;0.60;0.60;;;;;;;5.00;56.04;96981.31;29373;203;63004;-59
2021/04/26 02:11:04;;;;;;;0.60;0.60;;;;;;;4.98;56.20;96986.94;29373;226;63009;-59
2021/04/26 02:11:35;;;;;;;0.60;0.60;;;;;;;4.93;56.81;96992.25;29373;254;63004;-58
2021/04/26 02:12:12;;;;;;;0.60;0.60;;;;;;;4.94;56.51;96993.06;29373;204;63009;-58
2021/04/26 02:12:45;;;;;;;0.60;0.60;;;;;;;4.92;57.39;97000.56;29373;266;63004;-59
2021/04/26 02:13:20;;;;;;;0.60;0.60;;;;;;;4.87;57.08;96993.28;29372;215;63008;-53
2021/04/26 02:13:54;;;;;;;0.60;0.60;;;;;;;4.85;56.81;96998.09;29373;251;63005;-58
2021/04/26 02:14:27;;;;;;;0.60;0.60;;;;;;;4.86;57.12;96996.22;29373;241;63009;-59
2021/04/26 02:15:00;;;;;;;0.65;0.65;;;;;;;4.86;56.79;96994.34;29373;236;63005;-58
2021/04/26 02:15:33;;;;;;;0.60;0.60;;;;;;;4.85;57.01;97000.78;29371;218;64013;-59
2021/04/26 02:16:07;;;;;;;1.48;1.48;;;;;;;4.86;56.44;96996.22;29373;223;63005;-53
2021/04/26 02:16:40;;;;;;;0.60;0.60;;;;;;;4.84;56.11;96993.81;29373;247;63009;-59
2021/04/26 02:17:15;;;;;;;0.60;0.60;;;;;;;4.85;56.48;96991.94;29373;243;63004;-59
2021/04/26 02:17:47;;;;;;;0.60;0.60;;;;;;;4.84;56.71;96998.37;29372;202;63009;-58
2021/04/26 02:18:19;;;;;;;0.60;0.60;;;;;;;4.86;56.75;96996.22;29373;208;63004;-59
2021/04/26 02:18:50;;;;;;;0.60;0.60;;;;;;;4.85;56.39;96991.94;29373;220;63009;-58
2021/04/26 02:19:21;;;;;;;0.60;0.60;;;;;;;4.83;56.56;96991.37;29373;245;63004;-59
2021/04/26 02:19:52;;;;;;;0.60;0.60;;;;;;;4.82;56.30;96995.12;29373;202;63008;-52
2021/04/26 02:20:24;;;;;;;0.60;0.60;;;;;;;4.81;56.68;96998.87;29373;202;63004;-59
2021/04/26 02:20:56;;;;;;;0.60;0.60;;;;;;;4.80;56.70;96997.25;29371;212;64013;-59
2021/04/26 02:21:27;;;;;;;0.60;0.60;;;;;;;4.78;56.92;97000.19;29373;209;63005;-59
2021/04/26 02:21:59;;;;;;;0.60;0.60;;;;;;;4.78;57.02;96999.38;29373;244;63009;-59
2021/04/26 02:22:30;;;;;;;0.60;0.60;;;;;;;4.78;57.39;96999.38;29373;210;63005;-58
2021/04/26 02:23:01;;;;;;;0.60;0.60;;;;;;;4.76;57.91;96996.13;29371;241;64013;-59
2021/04/26 02:23:33;;;;;;;0.60;0.60;;;;;;;4.75;56.96;97000.69;29373;267;63005;-58
2021/04/26 02:24:08;;;;;;;0.60;0.60;;;;;;;4.77;57.10;96997.75;29373;230;63009;-58
2021/04/26 02:24:39;;;;;;;0.60;0.60;;;;;;;4.78;57.13;96994.00;29373;228;63004;-58
2021/04/26 02:25:12;;;;;;;0.60;0.60;;;;;;;4.78;57.39;97004.75;29373;250;63009;-59
2021/04/26 02:25:44;;;;;;;0.60;0.60;;;;;;;4.75;56.78;97006.06;29371;263;64009;-59
2021/04/26 02:26:15;;;;;;;0.60;0.60;;;;;;;4.77;56.94;97003.13;29373;222;63009;-52
2021/04/26 02:26:47;;;;;;;0.60;0.60;;;;;;;4.76;57.09;97005.00;29373;226;63004;-58
2021/04/26 02:27:18;;;;;;;0.60;0.60;;;;;;;4.76;56.91;97001.50;29373;218;63004;-59
2021/04/26 02:27:49;;;;;;;0.60;0.60;;;;;;;4.76;57.16;96996.94;29373;232;63004;-58
2021/04/26 02:28:22;;;;;;;0.60;0.60;;;;;;;4.74;57.12;97003.63;29373;254;63009;-59
2021/04/26 02:28:53;;;;;;;0.60;0.60;;;;;;;4.72;57.63;97007.38;29373;215;63005;-58
2021/04/26 02:29:25;;;;;;;0.60;0.60;;;;;;;4.74;57.25;97006.31;29373;213;63009;-53
2021/04/26 02:29:56;;;;;;;0.57;0.57;;;;;;;4.74;57.81;96998.25;29373;218;63005;-59
2021/04/26 02:30:27;;;;;;;0.60;0.60;;;;;;;4.71;57.49;97000.38;29371;265;64013;-59
2021/04/26 02:31:00;;;;;;;0.60;0.60;;;;;;;4.71;57.31;97002.25;29373;214;63005;-58
2021/04/26 02:31:34;;;;;;;0.60;0.60;;;;;;;4.69;57.50;97002.50;29373;257;63009;-59
2021/04/26 02:32:10;;;;;;;0.60;0.60;;;;;;;4.67;57.58;96993.88;29373;197;63017;-59
2021/04/26 02:32:49;;;;;;;0.60;0.60;;;;;;;4.60;58.54;97003.19;29373;212;63009;-59
2021/04/26 02:33:28;;;;;;;0.60;0.60;;;;;;;4.52;58.60;97007.13;29373;232;63004;-59
2021/04/26 02:34:25;;;;;;;0.60;0.60;;;;;;;4.51;58.05;96997.44;29373;228;63009;-59
2021/04/26 02:35:01;;;;;;;0.60;0.60;;;;;;;4.53;58.13;96999.88;29373;261;63004;-59
2021/04/26 02:35:42;;;;;;;0.60;0.60;;;;;;;4.57;58.02;96995.63;29371;239;64014;-53
2021/04/26 02:36:16;;;;;;;;;;;;;;;4.56;57.69;96997.50;29974;982;28000;-59
2021/04/26 02:36:50;;;;;;;0.60;0.60;;;;;;;4.57;58.66;97003.69;29400;199;63005;-59
2021/04/26 02:37:40;;;;;;;0.60;0.60;;;;;;;4.53;58.10;97003.38;29372;200;63009;-58
2021/04/26 02:38:18;;;;;;;0.60;0.60;;;;;;;4.53;57.92;97002.56;29373;202;63005;-59
2021/04/26 02:38:52;;;;;;;0.60;0.60;;;;;;;4.52;59.26;97000.94;29373;242;63009;-58
2021/04/26 02:39:24;;;;;;;0.60;0.60;;;;;;;4.41;59.63;97000.03;29373;202;63005;-58
2021/04/26 02:40:02;;;;;;;0.60;0.60;;;;;;;4.41;58.93;96996.53;29373;197;63009;-59
2021/04/26 02:40:46;;;;;;;0.60;0.60;;;;;;;4.42;58.64;96998.97;29371;196;64009;-58
2021/04/26 02:41:32;;;;;;;0.60;0.60;;;;;;;4.41;58.46;96989.28;29373;246;63009;-59
2021/04/26 02:42:06;;;;;;;0.60;0.60;;;;;;;4.39;58.10;96991.41;29373;302;63004;-59
2021/04/26 02:42:44;;;;;;;0.60;0.60;;;;;;;4.38;58.09;96990.59;29373;206;63008;-59
2021/04/26 02:43:17;;;;;;;0.60;0.60;;;;;;;4.40;58.30;96995.72;29373;232;63005;-58
2021/04/26 02:43:57;;;;;;;0.70;0.70;;;;;;;4.41;58.42;96996.53;29372;207;63009;-58
2021/04/26 02:44:31;;;;;;;0.62;0.62;;;;;;;4.44;58.39;96994.16;29395;197;63005;-60
2021/04/26 02:45:04;;;;;;;0.60;0.60;;;;;;;4.46;58.40;96992.03;29395;202;63009;-58
2021/04/26 02:45:40;;;;;;;0.60;0.60;;;;;;;4.48;58.12;96989.91;29371;233;64009;-59
2021/04/26 02:46:14;;;;;;;0.60;0.60;;;;;;;4.48;58.38;96984.56;29373;211;63009;-59
2021/04/26 02:46:46;;;;;;;0.60;0.60;;;;;;;4.47;58.05;96977.56;29373;276;63005;-60
2021/04/26 02:47:21;;;;;;;0.60;0.60;;;;;;;4.47;58.14;96982.13;29373;212;63009;-58
2021/04/26 02:47:54;;;;;;;0.60;0.60;;;;;;;4.46;57.96;96986.69;29373;228;63004;-59
2021/04/26 02:48:26;;;;;;;0.60;0.60;;;;;;;4.45;58.03;96979.69;29371;263;64013;-59